createdAt,value
2018-11-22T00:00:01.236Z,772.33
2018-11-22T00:00:05.560Z,772.39
2018-11-22T00:00:09.866Z,772.32
2018-11-22T00:00:14.178Z,772.34
2018-11-22T00:00:18.485Z,772.3
2018-11-22T00:00:22.796Z,772.33
2018-11-22T00:00:27.106Z,772.37
2018-11-22T00:00:31.310Z,772.31
2018-11-22T00:00:35.617Z,772.35
2018-11-22T00:00:39.923Z,772.37
2018-11-22T00:00:44.224Z,772.37
2018-11-22T00:00:48.530Z,772.35
2018-11-22T00:00:52.830Z,772.35
2018-11-22T00:00:57.038Z,772.34
2018-11-22T00:01:01.344Z,772.36
2018-11-22T00:01:05.657Z,772.34
2018-11-22T00:01:09.965Z,772.34
2018-11-22T00:01:14.271Z,772.35
2018-11-22T00:01:18.571Z,772.28
2018-11-22T00:01:22.880Z,772.35
2018-11-22T00:01:27.186Z,772.34
2018-11-22T00:01:31.493Z,772.33
2018-11-22T00:01:35.805Z,772.32
2018-11-22T00:01:40.107Z,772.32
2018-11-22T00:01:44.408Z,772.3
2018-11-22T00:01:48.714Z,772.29
2018-11-22T00:01:53.031Z,772.3
2018-11-22T00:01:57.380Z,772.32
2018-11-22T00:02:01.691Z,772.31
2018-11-22T00:02:05.899Z,772.31
2018-11-22T00:02:10.207Z,772.25
2018-11-22T00:02:14.518Z,772.3
2018-11-22T00:02:18.819Z,772.26
2018-11-22T00:02:23.128Z,772.3
2018-11-22T00:02:27.436Z,772.28
2018-11-22T00:02:31.784Z,772.34
2018-11-22T00:02:36.094Z,772.28
2018-11-22T00:02:40.400Z,772.31
2018-11-22T00:02:44.707Z,772.33
2018-11-22T00:02:49.011Z,772.36
2018-11-22T00:02:53.314Z,772.33
2018-11-22T00:02:57.626Z,772.29
2018-11-22T00:03:01.974Z,772.34
2018-11-22T00:03:06.281Z,772.34
2018-11-22T00:03:10.592Z,772.34
2018-11-22T00:03:14.906Z,772.32
2018-11-22T00:03:19.209Z,772.34
2018-11-22T00:03:23.516Z,772.34
2018-11-22T00:03:27.824Z,772.35
2018-11-22T00:03:32.134Z,772.36
2018-11-22T00:03:36.447Z,772.36
2018-11-22T00:03:40.756Z,772.33
2018-11-22T00:03:45.060Z,772.35
2018-11-22T00:03:49.367Z,772.35
2018-11-22T00:03:53.672Z,772.37
2018-11-22T00:03:57.988Z,772.38
2018-11-22T00:04:02.300Z,772.37
2018-11-22T00:04:06.612Z,772.36
2018-11-22T00:04:10.924Z,772.32
2018-11-22T00:04:15.229Z,772.38
2018-11-22T00:04:19.536Z,772.38
2018-11-22T00:04:23.840Z,772.39
2018-11-22T00:04:28.186Z,772.39
2018-11-22T00:04:32.495Z,772.38
2018-11-22T00:04:36.702Z,772.42
2018-11-22T00:04:41.018Z,772.41
2018-11-22T00:04:45.322Z,772.43
2018-11-22T00:04:49.635Z,772.38
2018-11-22T00:04:53.939Z,772.36
2018-11-22T00:04:58.242Z,772.41
2018-11-22T00:05:02.646Z,772.42
2018-11-22T00:05:06.956Z,772.42
2018-11-22T00:05:11.261Z,772.4
2018-11-22T00:05:15.576Z,772.41
2018-11-22T00:05:19.882Z,772.4
2018-11-22T00:05:24.187Z,772.4
2018-11-22T00:05:28.507Z,772.42
2018-11-22T00:05:32.822Z,772.41
2018-11-22T00:05:37.121Z,772.4
2018-11-22T00:05:41.432Z,772.42
2018-11-22T00:05:45.737Z,772.44
2018-11-22T00:05:50.043Z,772.43
2018-11-22T00:05:54.349Z,772.44
2018-11-22T00:05:58.672Z,772.42
2018-11-22T00:06:02.976Z,772.4
2018-11-22T00:06:07.293Z,772.41
2018-11-22T00:06:11.600Z,772.42
2018-11-22T00:06:15.907Z,772.43
2018-11-22T00:06:20.214Z,772.42
2018-11-22T00:06:24.517Z,772.43
2018-11-22T00:06:28.815Z,772.42
2018-11-22T00:06:33.119Z,772.41
2018-11-22T00:06:37.427Z,772.39
2018-11-22T00:06:41.726Z,772.42
2018-11-22T00:06:46.032Z,772.43
2018-11-22T00:06:50.343Z,772.4
2018-11-22T00:06:54.644Z,772.39
2018-11-22T00:06:58.951Z,772.37
2018-11-22T00:07:03.263Z,772.36
2018-11-22T00:07:07.573Z,772.35
2018-11-22T00:07:11.885Z,772.36
2018-11-22T00:07:16.197Z,772.35
2018-11-22T00:07:20.499Z,772.31
2018-11-22T00:07:24.806Z,772.33
2018-11-22T00:07:29.113Z,772.31
2018-11-22T00:07:33.463Z,772.29
2018-11-22T00:07:37.763Z,772.27
2018-11-22T00:07:42.082Z,772.24
2018-11-22T00:07:46.388Z,772.26
2018-11-22T00:07:50.693Z,772.26
2018-11-22T00:07:54.999Z,772.2
2018-11-22T00:07:59.306Z,772.24
2018-11-22T00:08:03.511Z,772.24
2018-11-22T00:08:07.821Z,772.2
2018-11-22T00:08:12.132Z,772.22
2018-11-22T00:08:16.450Z,772.17
2018-11-22T00:08:20.760Z,772.21
2018-11-22T00:08:25.063Z,772.17
2018-11-22T00:08:29.371Z,772.17
2018-11-22T00:08:33.674Z,772.15
2018-11-22T00:08:37.976Z,772.16
2018-11-22T00:08:43.051Z,772.16
2018-11-22T00:08:47.252Z,772.15
2018-11-22T00:08:51.564Z,772.15
2018-11-22T00:08:55.879Z,772.13
2018-11-22T00:09:00.183Z,772.13
2018-11-22T00:09:04.493Z,772.09
2018-11-22T00:09:08.797Z,772.12
2018-11-22T00:09:13.101Z,772.1
2018-11-22T00:09:17.406Z,772.13
2018-11-22T00:09:21.708Z,772.1
2018-11-22T00:09:26.013Z,772.04
2018-11-22T00:09:30.317Z,772.09
2018-11-22T00:09:34.627Z,772.07
2018-11-22T00:09:38.937Z,772.06
2018-11-22T00:09:43.243Z,772.06
2018-11-22T00:09:47.549Z,772.03
2018-11-22T00:09:51.853Z,772.01
2018-11-22T00:09:56.162Z,771.99
2018-11-22T00:10:00.404Z,771.95
2018-11-22T00:10:04.716Z,771.95
2018-11-22T00:10:09.024Z,771.95
2018-11-22T00:10:13.335Z,771.97
2018-11-22T00:10:17.637Z,771.94
2018-11-22T00:10:21.840Z,771.95
2018-11-22T00:10:26.147Z,771.93
2018-11-22T00:10:30.461Z,771.94
2018-11-22T00:10:34.771Z,771.97
2018-11-22T00:10:39.080Z,771.98
2018-11-22T00:10:43.381Z,771.97
2018-11-22T00:10:47.589Z,771.96
2018-11-22T00:10:51.899Z,771.93
2018-11-22T00:10:56.213Z,771.97
2018-11-22T00:11:00.524Z,771.96
2018-11-22T00:11:04.827Z,771.97
2018-11-22T00:11:09.127Z,771.99
2018-11-22T00:11:13.432Z,771.95
2018-11-22T00:11:17.781Z,771.97
2018-11-22T00:11:22.090Z,771.99
2018-11-22T00:11:26.393Z,771.96
2018-11-22T00:11:30.703Z,771.99
2018-11-22T00:11:35.008Z,771.94
2018-11-22T00:11:39.317Z,771.95
2018-11-22T00:11:43.627Z,771.99
2018-11-22T00:11:47.981Z,771.96
2018-11-22T00:11:52.291Z,771.94
2018-11-22T00:11:56.602Z,771.95
2018-11-22T00:12:00.913Z,771.96
2018-11-22T00:12:05.219Z,771.93
2018-11-22T00:12:09.526Z,771.93
2018-11-22T00:12:13.836Z,771.89
2018-11-22T00:12:18.143Z,771.9
2018-11-22T00:12:22.444Z,771.89
2018-11-22T00:12:26.753Z,771.87
2018-11-22T00:12:31.060Z,771.9
2018-11-22T00:12:35.369Z,771.88
2018-11-22T00:12:39.675Z,771.87
2018-11-22T00:12:43.878Z,771.87
2018-11-22T00:12:48.086Z,771.88
2018-11-22T00:12:52.404Z,771.85
2018-11-22T00:12:56.721Z,771.86
2018-11-22T00:13:01.025Z,771.88
2018-11-22T00:13:05.339Z,771.86
2018-11-22T00:13:09.659Z,771.84
2018-11-22T00:13:13.965Z,771.84
2018-11-22T00:13:18.274Z,771.83
2018-11-22T00:13:22.582Z,771.82
2018-11-22T00:13:26.901Z,771.78
2018-11-22T00:13:31.211Z,771.79
2018-11-22T00:13:35.518Z,771.79
2018-11-22T00:13:39.834Z,771.82
2018-11-22T00:13:44.136Z,771.82
2018-11-22T00:13:48.449Z,771.78
2018-11-22T00:13:52.649Z,771.8
2018-11-22T00:13:56.957Z,771.76
2018-11-22T00:14:01.266Z,771.76
2018-11-22T00:14:05.690Z,771.77
2018-11-22T00:14:10.001Z,771.76
2018-11-22T00:14:14.303Z,771.73
2018-11-22T00:14:18.611Z,771.73
2018-11-22T00:14:22.919Z,771.74
2018-11-22T00:14:27.285Z,771.71
2018-11-22T00:14:31.591Z,771.72
2018-11-22T00:14:35.899Z,771.72
2018-11-22T00:14:40.207Z,771.72
2018-11-22T00:14:44.315Z,771.69
2018-11-22T00:14:48.621Z,771.69
2018-11-22T00:14:52.822Z,771.7
2018-11-22T00:14:57.126Z,771.68
2018-11-22T00:15:01.432Z,771.65
2018-11-22T00:15:05.847Z,771.65
2018-11-22T00:15:10.157Z,771.63
2018-11-22T00:15:14.459Z,771.66
2018-11-22T00:15:18.771Z,771.62
2018-11-22T00:15:23.082Z,771.64
2018-11-22T00:15:27.385Z,771.58
2018-11-22T00:15:31.695Z,771.6
2018-11-22T00:15:36.005Z,771.59
2018-11-22T00:15:40.354Z,771.57
2018-11-22T00:15:44.660Z,771.59
2018-11-22T00:15:48.999Z,771.61
2018-11-22T00:15:53.297Z,771.56
2018-11-22T00:15:57.609Z,771.54
2018-11-22T00:16:01.915Z,771.51
2018-11-22T00:16:06.226Z,771.5
2018-11-22T00:16:10.531Z,771.57
2018-11-22T00:16:14.847Z,771.54
2018-11-22T00:16:19.157Z,771.55
2018-11-22T00:16:23.463Z,771.53
2018-11-22T00:16:27.767Z,771.54
2018-11-22T00:16:32.075Z,771.51
2018-11-22T00:16:36.383Z,771.53
2018-11-22T00:16:40.686Z,771.55
2018-11-22T00:16:44.997Z,771.49
2018-11-22T00:16:49.313Z,771.45
2018-11-22T00:16:53.620Z,771.46
2018-11-22T00:16:57.924Z,771.46
2018-11-22T00:17:02.229Z,771.46
2018-11-22T00:17:06.541Z,771.44
2018-11-22T00:17:10.843Z,771.43
2018-11-22T00:17:15.144Z,771.42
2018-11-22T00:17:19.460Z,771.41
2018-11-22T00:17:23.765Z,771.38
2018-11-22T00:17:28.068Z,771.38
2018-11-22T00:17:32.372Z,771.35
2018-11-22T00:17:36.688Z,771.38
2018-11-22T00:17:40.993Z,771.37
2018-11-22T00:17:45.290Z,771.35
2018-11-22T00:17:49.630Z,771.37
2018-11-22T00:17:53.938Z,771.34
2018-11-22T00:17:58.241Z,771.36
2018-11-22T00:18:02.559Z,771.32
2018-11-22T00:18:06.865Z,771.31
2018-11-22T00:18:11.069Z,771.28
2018-11-22T00:18:15.372Z,771.27
2018-11-22T00:18:19.687Z,771.26
2018-11-22T00:18:23.888Z,771.26
2018-11-22T00:18:28.194Z,771.26
2018-11-22T00:18:32.501Z,771.26
2018-11-22T00:18:36.806Z,771.23
2018-11-22T00:18:41.120Z,771.25
2018-11-22T00:18:45.424Z,771.24
2018-11-22T00:18:49.728Z,771.26
2018-11-22T00:18:54.035Z,771.22
2018-11-22T00:18:58.344Z,771.22
2018-11-22T00:19:02.648Z,771.2
2018-11-22T00:19:06.953Z,771.2
2018-11-22T00:19:11.251Z,771.23
2018-11-22T00:19:15.554Z,771.2
2018-11-22T00:19:19.862Z,771.14
2018-11-22T00:19:24.176Z,771.14
2018-11-22T00:19:28.492Z,771.12
2018-11-22T00:19:32.807Z,771.13
2018-11-22T00:19:37.115Z,771.09
2018-11-22T00:19:41.423Z,771.11
2018-11-22T00:19:45.729Z,771.16
2018-11-22T00:19:50.038Z,771.17
2018-11-22T00:19:54.350Z,771.17
2018-11-22T00:19:58.654Z,771.14
2018-11-22T00:20:02.966Z,771.08
2018-11-22T00:20:07.273Z,771.13
2018-11-22T00:20:11.599Z,771.12
2018-11-22T00:20:15.910Z,771.09
2018-11-22T00:20:20.258Z,771.14
2018-11-22T00:20:24.564Z,771.11
2018-11-22T00:20:28.864Z,771.1
2018-11-22T00:20:33.173Z,771.09
2018-11-22T00:20:37.540Z,771.14
2018-11-22T00:20:41.850Z,771.11
2018-11-22T00:20:46.170Z,771.14
2018-11-22T00:20:50.477Z,771.11
2018-11-22T00:20:54.788Z,771.11
2018-11-22T00:20:59.091Z,771.11
2018-11-22T00:21:03.497Z,771.11
2018-11-22T00:21:07.820Z,771.1
2018-11-22T00:21:12.136Z,771.11
2018-11-22T00:21:16.451Z,771.13
2018-11-22T00:21:20.754Z,771.11
2018-11-22T00:21:25.063Z,771.09
2018-11-22T00:21:29.372Z,771.12
2018-11-22T00:21:33.673Z,771.12
2018-11-22T00:21:38.027Z,771.13
2018-11-22T00:21:42.328Z,771.12
2018-11-22T00:21:46.637Z,771.1
2018-11-22T00:21:50.938Z,771.09
2018-11-22T00:21:55.135Z,771.13
2018-11-22T00:21:59.436Z,771.16
2018-11-22T00:22:03.745Z,771.17
2018-11-22T00:22:08.051Z,771.13
2018-11-22T00:22:12.352Z,771.13
2018-11-22T00:22:16.662Z,771.14
2018-11-22T00:22:20.976Z,771.13
2018-11-22T00:22:25.083Z,771.14
2018-11-22T00:22:29.397Z,771.15
2018-11-22T00:22:34.440Z,771.13
2018-11-22T00:22:38.742Z,771.16
2018-11-22T00:22:43.054Z,771.14
2018-11-22T00:22:47.353Z,771.14
2018-11-22T00:22:51.656Z,771.16
2018-11-22T00:22:55.859Z,771.15
2018-11-22T00:23:00.165Z,771.13
2018-11-22T00:23:04.480Z,771.17
2018-11-22T00:23:08.791Z,771.18
2018-11-22T00:23:13.110Z,771.15
2018-11-22T00:23:17.419Z,771.16
2018-11-22T00:23:21.724Z,771.15
2018-11-22T00:23:26.032Z,771.18
2018-11-22T00:23:30.344Z,771.2
2018-11-22T00:23:34.651Z,771.18
2018-11-22T00:23:38.961Z,771.19
2018-11-22T00:23:43.265Z,771.18
2018-11-22T00:23:47.565Z,771.2
2018-11-22T00:23:51.878Z,771.22
2018-11-22T00:23:56.181Z,771.17
2018-11-22T00:24:00.485Z,771.22
2018-11-22T00:24:04.988Z,771.19
2018-11-22T00:24:09.322Z,771.24
2018-11-22T00:24:13.627Z,771.22
2018-11-22T00:24:17.934Z,771.21
2018-11-22T00:24:22.235Z,771.25
2018-11-22T00:24:26.543Z,771.24
2018-11-22T00:24:30.860Z,771.22
2018-11-22T00:24:35.181Z,771.28
2018-11-22T00:24:39.488Z,771.22
2018-11-22T00:24:43.793Z,771.26
2018-11-22T00:24:48.097Z,771.22
2018-11-22T00:24:52.402Z,771.23
2018-11-22T00:24:56.715Z,771.25
2018-11-22T00:25:00.925Z,771.28
2018-11-22T00:25:05.228Z,771.26
2018-11-22T00:25:09.535Z,771.28
2018-11-22T00:25:13.844Z,771.3
2018-11-22T00:25:18.153Z,771.27
2018-11-22T00:25:22.450Z,771.29
2018-11-22T00:25:26.759Z,771.28
2018-11-22T00:25:31.072Z,771.31
2018-11-22T00:25:35.385Z,771.28
2018-11-22T00:25:39.697Z,771.32
2018-11-22T00:25:44.002Z,771.28
2018-11-22T00:25:48.304Z,771.28
2018-11-22T00:25:52.618Z,771.33
2018-11-22T00:25:56.930Z,771.34
2018-11-22T00:26:01.234Z,771.32
2018-11-22T00:26:05.606Z,771.33
2018-11-22T00:26:09.909Z,771.34
2018-11-22T00:26:14.227Z,771.35
2018-11-22T00:26:18.531Z,771.35
2018-11-22T00:26:22.833Z,771.36
2018-11-22T00:26:27.144Z,771.31
2018-11-22T00:26:31.448Z,771.35
2018-11-22T00:26:35.655Z,771.39
2018-11-22T00:26:39.963Z,771.39
2018-11-22T00:26:44.259Z,771.4
2018-11-22T00:26:48.564Z,771.38
2018-11-22T00:26:52.870Z,771.39
2018-11-22T00:26:57.173Z,771.46
2018-11-22T00:27:01.494Z,771.41
2018-11-22T00:27:05.799Z,771.4
2018-11-22T00:27:10.113Z,771.42
2018-11-22T00:27:14.385Z,771.43
2018-11-22T00:27:18.684Z,771.44
2018-11-22T00:27:23.007Z,771.47
2018-11-22T00:27:27.315Z,771.5
2018-11-22T00:27:31.622Z,771.51
2018-11-22T00:27:35.928Z,771.53
2018-11-22T00:27:40.280Z,771.53
2018-11-22T00:27:44.583Z,771.53
2018-11-22T00:27:48.886Z,771.45
2018-11-22T00:27:53.191Z,771.47
2018-11-22T00:27:57.500Z,771.54
2018-11-22T00:28:01.818Z,771.55
2018-11-22T00:28:06.126Z,771.54
2018-11-22T00:28:10.428Z,771.53
2018-11-22T00:28:14.734Z,771.59
2018-11-22T00:28:19.033Z,771.57
2018-11-22T00:28:23.394Z,771.57
2018-11-22T00:28:27.701Z,771.58
2018-11-22T00:28:32.003Z,771.55
2018-11-22T00:28:36.201Z,771.59
2018-11-22T00:28:40.403Z,771.59
2018-11-22T00:28:44.709Z,771.57
2018-11-22T00:28:48.821Z,771.59
2018-11-22T00:28:53.123Z,771.6
2018-11-22T00:28:57.332Z,771.6
2018-11-22T00:29:01.635Z,771.57
2018-11-22T00:29:05.948Z,771.59
2018-11-22T00:29:10.264Z,771.62
2018-11-22T00:29:14.572Z,771.62
2018-11-22T00:29:18.877Z,771.62
2018-11-22T00:29:23.181Z,771.61
2018-11-22T00:29:27.381Z,771.61
2018-11-22T00:29:31.585Z,771.62
2018-11-22T00:29:35.900Z,771.59
2018-11-22T00:29:40.239Z,771.62
2018-11-22T00:29:44.542Z,771.61
2018-11-22T00:29:48.849Z,771.62
2018-11-22T00:29:53.050Z,771.6
2018-11-22T00:29:57.355Z,771.62
2018-11-22T00:30:01.668Z,771.54
2018-11-22T00:30:05.977Z,771.58
2018-11-22T00:30:10.285Z,771.57
2018-11-22T00:30:14.591Z,771.56
2018-11-22T00:30:18.901Z,771.62
2018-11-22T00:30:23.215Z,771.59
2018-11-22T00:30:27.521Z,771.59
2018-11-22T00:30:31.824Z,771.62
2018-11-22T00:30:36.131Z,771.6
2018-11-22T00:30:40.440Z,771.55
2018-11-22T00:30:44.741Z,771.57
2018-11-22T00:30:49.050Z,771.6
2018-11-22T00:30:53.360Z,771.54
2018-11-22T00:30:57.682Z,771.54
2018-11-22T00:31:01.987Z,771.57
2018-11-22T00:31:06.294Z,771.58
2018-11-22T00:31:10.602Z,771.57
2018-11-22T00:31:14.907Z,771.54
2018-11-22T00:31:19.211Z,771.55
2018-11-22T00:31:23.515Z,771.56
2018-11-22T00:31:27.825Z,771.54
2018-11-22T00:31:32.138Z,771.5
2018-11-22T00:31:36.442Z,771.52
2018-11-22T00:31:40.744Z,771.51
2018-11-22T00:31:45.049Z,771.5
2018-11-22T00:31:49.247Z,771.53
2018-11-22T00:31:53.554Z,771.48
2018-11-22T00:31:58.671Z,771.48
2018-11-22T00:32:03.009Z,771.47
2018-11-22T00:32:07.319Z,771.48
2018-11-22T00:32:11.630Z,771.45
2018-11-22T00:32:15.940Z,771.46
2018-11-22T00:32:20.238Z,771.47
2018-11-22T00:32:24.543Z,771.46
2018-11-22T00:32:28.857Z,771.44
2018-11-22T00:32:33.181Z,771.45
2018-11-22T00:32:37.503Z,771.39
2018-11-22T00:32:41.816Z,771.4
2018-11-22T00:32:46.011Z,771.35
2018-11-22T00:32:50.321Z,771.35
2018-11-22T00:32:54.624Z,771.33
2018-11-22T00:32:58.929Z,771.33
2018-11-22T00:33:03.240Z,771.31
2018-11-22T00:33:07.565Z,771.31
2018-11-22T00:33:11.878Z,771.31
2018-11-22T00:33:16.191Z,771.25
2018-11-22T00:33:20.489Z,771.29
2018-11-22T00:33:24.798Z,771.28
2018-11-22T00:33:29.104Z,771.23
2018-11-22T00:33:33.411Z,771.23
2018-11-22T00:33:37.712Z,771.21
2018-11-22T00:33:42.017Z,771.17
2018-11-22T00:33:46.379Z,771.19
2018-11-22T00:33:50.681Z,771.18
2018-11-22T00:33:54.984Z,771.15
2018-11-22T00:33:59.289Z,771.14
2018-11-22T00:34:03.592Z,771.14
2018-11-22T00:34:07.894Z,771.13
2018-11-22T00:34:12.203Z,771.07
2018-11-22T00:34:16.561Z,771.08
2018-11-22T00:34:20.861Z,771.07
2018-11-22T00:34:25.159Z,771.07
2018-11-22T00:34:29.366Z,771.08
2018-11-22T00:34:33.672Z,771.07
2018-11-22T00:34:37.983Z,771.07
2018-11-22T00:34:42.283Z,771.05
2018-11-22T00:34:46.594Z,771.08
2018-11-22T00:34:50.898Z,771.05
2018-11-22T00:34:55.196Z,770.99
2018-11-22T00:34:59.501Z,771.05
2018-11-22T00:35:03.825Z,771.02
2018-11-22T00:35:08.137Z,771.01
2018-11-22T00:35:12.443Z,771.01
2018-11-22T00:35:16.800Z,771
2018-11-22T00:35:21.106Z,771
2018-11-22T00:35:25.410Z,770.99
2018-11-22T00:35:29.717Z,770.98
2018-11-22T00:35:34.033Z,770.96
2018-11-22T00:35:38.349Z,770.94
2018-11-22T00:35:42.656Z,770.89
2018-11-22T00:35:46.974Z,770.91
2018-11-22T00:35:51.285Z,770.87
2018-11-22T00:35:55.587Z,770.85
2018-11-22T00:35:59.896Z,770.85
2018-11-22T00:36:04.203Z,770.81
2018-11-22T00:36:08.508Z,770.78
2018-11-22T00:36:12.820Z,770.81
2018-11-22T00:36:17.134Z,770.79
2018-11-22T00:36:21.440Z,770.85
2018-11-22T00:36:25.742Z,770.84
2018-11-22T00:36:30.044Z,770.8
2018-11-22T00:36:34.408Z,770.83
2018-11-22T00:36:38.711Z,770.83
2018-11-22T00:36:43.011Z,770.84
2018-11-22T00:36:47.327Z,770.82
2018-11-22T00:36:51.630Z,770.83
2018-11-22T00:36:55.935Z,770.82
2018-11-22T00:37:00.238Z,770.82
2018-11-22T00:37:04.542Z,770.8
2018-11-22T00:37:08.845Z,770.82
2018-11-22T00:37:13.155Z,770.79
2018-11-22T00:37:17.464Z,770.78
2018-11-22T00:37:21.768Z,770.8
2018-11-22T00:37:26.075Z,770.8
2018-11-22T00:37:30.275Z,770.8
2018-11-22T00:37:34.575Z,770.79
2018-11-22T00:37:38.886Z,770.8
2018-11-22T00:37:43.186Z,770.76
2018-11-22T00:37:47.495Z,770.82
2018-11-22T00:37:51.814Z,770.78
2018-11-22T00:37:56.118Z,770.81
2018-11-22T00:38:00.429Z,770.8
2018-11-22T00:38:04.733Z,770.76
2018-11-22T00:38:09.034Z,770.8
2018-11-22T00:38:13.335Z,770.74
2018-11-22T00:38:17.641Z,770.73
2018-11-22T00:38:21.955Z,770.73
2018-11-22T00:38:26.257Z,770.74
2018-11-22T00:38:30.568Z,770.73
2018-11-22T00:38:34.883Z,770.76
2018-11-22T00:38:39.191Z,770.75
2018-11-22T00:38:43.501Z,770.75
2018-11-22T00:38:47.807Z,770.72
2018-11-22T00:38:52.108Z,770.74
2018-11-22T00:38:56.419Z,770.71
2018-11-22T00:39:00.732Z,770.72
2018-11-22T00:39:05.057Z,770.72
2018-11-22T00:39:09.360Z,770.71
2018-11-22T00:39:13.683Z,770.71
2018-11-22T00:39:17.986Z,770.68
2018-11-22T00:39:22.318Z,770.7
2018-11-22T00:39:26.620Z,770.66
2018-11-22T00:39:30.930Z,770.68
2018-11-22T00:39:35.239Z,770.67
2018-11-22T00:39:39.542Z,770.68
2018-11-22T00:39:43.843Z,770.71
2018-11-22T00:39:48.160Z,770.72
2018-11-22T00:39:52.466Z,770.72
2018-11-22T00:39:56.770Z,770.73
2018-11-22T00:40:01.074Z,770.74
2018-11-22T00:40:05.538Z,770.73
2018-11-22T00:40:09.856Z,770.69
2018-11-22T00:40:14.160Z,770.73
2018-11-22T00:40:18.465Z,770.75
2018-11-22T00:40:22.770Z,770.7
2018-11-22T00:40:27.081Z,770.72
2018-11-22T00:40:31.383Z,770.72
2018-11-22T00:40:35.685Z,770.73
2018-11-22T00:40:39.989Z,770.7
2018-11-22T00:40:44.297Z,770.7
2018-11-22T00:40:48.603Z,770.73
2018-11-22T00:40:52.909Z,770.73
2018-11-22T00:40:57.215Z,770.78
2018-11-22T00:41:01.522Z,770.75
2018-11-22T00:41:05.829Z,770.72
2018-11-22T00:41:10.132Z,770.74
2018-11-22T00:41:14.432Z,770.77
2018-11-22T00:41:18.740Z,770.76
2018-11-22T00:41:23.047Z,770.78
2018-11-22T00:41:27.354Z,770.77
2018-11-22T00:41:31.666Z,770.78
2018-11-22T00:41:35.973Z,770.76
2018-11-22T00:41:40.283Z,770.76
2018-11-22T00:41:44.588Z,770.78
2018-11-22T00:41:48.893Z,770.77
2018-11-22T00:41:53.198Z,770.77
2018-11-22T00:41:57.515Z,770.77
2018-11-22T00:42:01.971Z,770.77
2018-11-22T00:42:06.277Z,770.74
2018-11-22T00:42:10.579Z,770.78
2018-11-22T00:42:14.889Z,770.77
2018-11-22T00:42:19.191Z,770.81
2018-11-22T00:42:23.489Z,770.79
2018-11-22T00:42:27.799Z,770.79
2018-11-22T00:42:32.107Z,770.79
2018-11-22T00:42:36.410Z,770.78
2018-11-22T00:42:40.613Z,770.82
2018-11-22T00:42:44.917Z,770.8
2018-11-22T00:42:49.222Z,770.8
2018-11-22T00:42:53.527Z,770.77
2018-11-22T00:42:57.827Z,770.81
2018-11-22T00:43:02.139Z,770.81
2018-11-22T00:43:06.453Z,770.75
2018-11-22T00:43:10.654Z,770.77
2018-11-22T00:43:14.961Z,770.79
2018-11-22T00:43:19.261Z,770.79
2018-11-22T00:43:23.567Z,770.8
2018-11-22T00:43:27.868Z,770.76
2018-11-22T00:43:32.172Z,770.77
2018-11-22T00:43:36.378Z,770.75
2018-11-22T00:43:40.682Z,770.78
2018-11-22T00:43:44.992Z,770.74
2018-11-22T00:43:49.304Z,770.74
2018-11-22T00:43:53.636Z,770.73
2018-11-22T00:43:57.937Z,770.7
2018-11-22T00:44:02.245Z,770.72
2018-11-22T00:44:06.554Z,770.72
2018-11-22T00:44:10.866Z,770.73
2018-11-22T00:44:15.173Z,770.7
2018-11-22T00:44:19.472Z,770.7
2018-11-22T00:44:23.779Z,770.68
2018-11-22T00:44:28.134Z,770.71
2018-11-22T00:44:32.438Z,770.67
2018-11-22T00:44:36.634Z,770.69
2018-11-22T00:44:40.938Z,770.72
2018-11-22T00:44:45.248Z,770.72
2018-11-22T00:44:49.552Z,770.71
2018-11-22T00:44:53.863Z,770.69
2018-11-22T00:44:58.164Z,770.71
2018-11-22T00:45:02.477Z,770.72
2018-11-22T00:45:06.794Z,770.73
2018-11-22T00:45:11.096Z,770.71
2018-11-22T00:45:15.398Z,770.73
2018-11-22T00:45:19.601Z,770.7
2018-11-22T00:45:23.907Z,770.67
2018-11-22T00:45:28.106Z,770.7
2018-11-22T00:45:32.414Z,770.72
2018-11-22T00:45:36.724Z,770.7
2018-11-22T00:45:41.031Z,770.72
2018-11-22T00:45:45.336Z,770.69
2018-11-22T00:45:49.636Z,770.74
2018-11-22T00:45:53.949Z,770.73
2018-11-22T00:45:58.252Z,770.76
2018-11-22T00:46:02.560Z,770.74
2018-11-22T00:46:06.895Z,770.7
2018-11-22T00:46:11.201Z,770.7
2018-11-22T00:46:15.506Z,770.72
2018-11-22T00:46:19.813Z,770.73
2018-11-22T00:46:24.123Z,770.68
2018-11-22T00:46:28.436Z,770.68
2018-11-22T00:46:32.739Z,770.7
2018-11-22T00:46:37.037Z,770.69
2018-11-22T00:46:41.375Z,770.67
2018-11-22T00:46:45.676Z,770.63
2018-11-22T00:46:49.976Z,770.62
2018-11-22T00:46:54.280Z,770.61
2018-11-22T00:46:58.583Z,770.62
2018-11-22T00:47:02.956Z,770.63
2018-11-22T00:47:07.861Z,770.62
2018-11-22T00:47:12.166Z,770.59
2018-11-22T00:47:16.476Z,770.59
2018-11-22T00:47:20.776Z,770.58
2018-11-22T00:47:25.083Z,770.52
2018-11-22T00:47:29.393Z,770.56
2018-11-22T00:47:33.706Z,770.55
2018-11-22T00:47:38.016Z,770.52
2018-11-22T00:47:42.229Z,770.53
2018-11-22T00:47:46.534Z,770.5
2018-11-22T00:47:50.851Z,770.5
2018-11-22T00:47:55.157Z,770.49
2018-11-22T00:47:59.473Z,770.47
2018-11-22T00:48:03.865Z,770.47
2018-11-22T00:48:08.166Z,770.5
2018-11-22T00:48:12.470Z,770.47
2018-11-22T00:48:16.790Z,770.47
2018-11-22T00:48:21.100Z,770.49
2018-11-22T00:48:25.404Z,770.46
2018-11-22T00:48:29.720Z,770.46
2018-11-22T00:48:34.067Z,770.41
2018-11-22T00:48:38.373Z,770.43
2018-11-22T00:48:42.674Z,770.41
2018-11-22T00:48:46.975Z,770.42
2018-11-22T00:48:51.276Z,770.4
2018-11-22T00:48:55.575Z,770.39
2018-11-22T00:48:59.880Z,770.39
2018-11-22T00:49:04.071Z,770.39
2018-11-22T00:49:08.383Z,770.4
2018-11-22T00:49:12.694Z,770.38
2018-11-22T00:49:17.012Z,770.38
2018-11-22T00:49:21.320Z,770.36
2018-11-22T00:49:25.629Z,770.4
2018-11-22T00:49:29.939Z,770.38
2018-11-22T00:49:34.143Z,770.35
2018-11-22T00:49:38.346Z,770.29
2018-11-22T00:49:42.651Z,770.31
2018-11-22T00:49:46.958Z,770.33
2018-11-22T00:49:51.267Z,770.34
2018-11-22T00:49:55.470Z,770.33
2018-11-22T00:49:59.772Z,770.32
2018-11-22T00:50:04.096Z,770.33
2018-11-22T00:50:08.410Z,770.36
2018-11-22T00:50:12.747Z,770.32
2018-11-22T00:50:17.048Z,770.33
2018-11-22T00:50:21.360Z,770.32
2018-11-22T00:50:25.659Z,770.36
2018-11-22T00:50:29.959Z,770.35
2018-11-22T00:50:34.268Z,770.3
2018-11-22T00:50:38.575Z,770.34
2018-11-22T00:50:42.887Z,770.31
2018-11-22T00:50:47.191Z,770.32
2018-11-22T00:50:51.531Z,770.33
2018-11-22T00:50:55.833Z,770.32
2018-11-22T00:51:00.028Z,770.29
2018-11-22T00:51:04.338Z,770.37
2018-11-22T00:51:08.687Z,770.33
2018-11-22T00:51:12.999Z,770.32
2018-11-22T00:51:17.306Z,770.32
2018-11-22T00:51:21.615Z,770.33
2018-11-22T00:51:25.922Z,770.34
2018-11-22T00:51:30.238Z,770.32
2018-11-22T00:51:34.460Z,770.34
2018-11-22T00:51:38.770Z,770.32
2018-11-22T00:51:43.072Z,770.34
2018-11-22T00:51:47.370Z,770.34
2018-11-22T00:51:51.673Z,770.37
2018-11-22T00:51:55.981Z,770.33
2018-11-22T00:52:00.284Z,770.34
2018-11-22T00:52:04.596Z,770.33
2018-11-22T00:52:08.901Z,770.34
2018-11-22T00:52:13.214Z,770.37
2018-11-22T00:52:17.533Z,770.36
2018-11-22T00:52:21.836Z,770.39
2018-11-22T00:52:26.144Z,770.35
2018-11-22T00:52:30.447Z,770.38
2018-11-22T00:52:34.746Z,770.37
2018-11-22T00:52:39.047Z,770.39
2018-11-22T00:52:43.249Z,770.4
2018-11-22T00:52:47.456Z,770.39
2018-11-22T00:52:51.761Z,770.42
2018-11-22T00:52:56.065Z,770.4
2018-11-22T00:53:00.374Z,770.41
2018-11-22T00:53:04.734Z,770.41
2018-11-22T00:53:08.935Z,770.43
2018-11-22T00:53:13.287Z,770.44
2018-11-22T00:53:17.598Z,770.43
2018-11-22T00:53:21.897Z,770.45
2018-11-22T00:53:26.207Z,770.44
2018-11-22T00:53:30.523Z,770.48
2018-11-22T00:53:34.826Z,770.48
2018-11-22T00:53:39.131Z,770.45
2018-11-22T00:53:43.437Z,770.49
2018-11-22T00:53:47.745Z,770.51
2018-11-22T00:53:52.050Z,770.53
2018-11-22T00:53:56.365Z,770.5